Time;durP1;ratioP1;P1;durP2;ratioP2;P2;SDS_P1;SDS_P2;PMS_P1;PMS_P2;Temp;Humidity;BMP_temperature;BMP_pressure;BME280_temperature;BME280_humidity;BME280_pressure;Samples;Min_cycle;Max_cycle;Signal;HPM_P1;HPM_P2
2023/02/28 07:10:37;;;;;;;;;48.67;45.00;;;;;-0.23;100.00;102675.41;5142292;23;49360;-69
2023/02/28 07:13:03;;;;;;;;;50.00;44.33;;;;;-0.27;100.00;102655.25;4942253;28;51450;-72
2023/02/28 07:15:28;;;;;;;;;50.33;43.00;;;;;-0.38;100.00;102636.19;4943328;28;49547;-69
2023/02/28 07:17:54;;;;;;;;;48.33;35.33;;;;;-0.28;100.00;102649.19;4943812;28;49968;-68
2023/02/28 07:20:19;;;;;;;;;47.33;43.67;;;;;-0.21;100.00;102661.88;4945950;28;49526;-63
2023/02/28 07:22:44;;;;;;;;;46.00;39.00;;;;;-0.26;100.00;102642.50;4947018;28;50444;-62
2023/02/28 07:25:10;;;;;;;;;49.67;40.00;;;;;-0.25;100.00;102641.72;4946122;28;49639;-61
2023/02/28 07:27:35;;;;;;;;;39.33;29.67;;;;;-0.15;100.00;102670.22;4949116;28;49959;-62
2023/02/28 07:30:03;;;;;;;;;35.33;31.67;;;;;-0.19;100.00;102654.28;4949519;28;49711;-61
2023/02/28 07:32:28;;;;;;;;;57.33;40.67;;;;;-0.11;100.00;102661.97;4947690;28;50724;-67
2023/02/28 07:34:54;;;;;;;;;30.00;21.67;;;;;-0.21;100.00;102641.22;4946530;28;49724;-70
2023/02/28 07:37:20;;;;;;;;;46.00;33.67;;;;;0.02;100.00;102687.28;4940841;28;49712;-67
2023/02/28 07:39:45;;;;;;;;;51.67;44.00;;;;;-0.30;100.00;102624.88;4943745;28;49792;-68
2023/02/28 07:42:11;;;;;;;;;42.67;34.00;;;;;-0.18;100.00;102641.53;4948643;28;49475;-68
2023/02/28 07:44:40;;;;;;;;;31.33;30.00;;;;;-0.11;100.00;102651.66;4948896;28;49745;-69
2023/02/28 07:47:10;;;;;;;;;27.67;16.00;;;;;-0.15;100.00;102635.75;4932154;28;49675;-69
2023/02/28 07:49:38;;;;;;;;;30.00;21.33;;;;;0.16;100.00;102693.72;4945936;28;49602;-69
2023/02/28 07:52:07;;;;;;;;;33.33;29.33;;;;;0.18;100.00;102715.44;4943444;28;50267;-70
2023/02/28 07:54:33;;;;;;;;;47.00;41.33;;;;;0.18;100.00;102675.00;4936175;28;49731;-70
2023/02/28 07:56:59;;;;;;;;;46.00;39.33;;;;;0.17;100.00;102686.13;4935688;28;49795;-69
2023/02/28 07:59:24;;;;;;;;;44.33;36.67;;;;;0.21;100.00;102669.25;4926510;28;49970;-69
2023/02/28 08:01:50;;;;;;;;;56.33;45.00;;;;;0.41;100.00;102697.81;4930862;28;52610;-70
2023/02/28 08:04:17;;;;;;;;;48.67;43.33;;;;;0.41;100.00;102691.75;4929129;28;49711;-70
2023/02/28 08:06:43;;;;;;;;;45.00;39.00;;;;;0.49;100.00;102699.44;4931458;28;49833;-70
2023/02/28 08:09:08;;;;;;;;;21.33;20.00;;;;;0.54;100.00;102702.44;4926366;28;49922;-68
2023/02/28 08:11:34;;;;;;;;;41.33;37.33;;;;;0.35;100.00;102670.50;4942366;28;49567;-71
2023/02/28 08:13:59;;;;;;;;;43.00;37.00;;;;;-0.21;100.00;102558.63;4940869;28;49729;-71
2023/02/28 08:16:25;;;;;;;;;31.50;26.50;;;;;0.59;100.00;102693.44;4942670;28;50007;-71
2023/02/28 08:18:51;;;;;;;;;48.67;40.00;;;;;-0.12;100.00;102553.41;4941634;28;49450;-70
2023/02/28 08:21:17;;;;;;;;;42.00;39.50;;;;;0.66;100.00;102679.38;4931846;28;49998;-71
2023/02/28 08:23:43;;;;;;;;;42.67;41.33;;;;;0.56;100.00;102655.28;4931047;28;50074;-70
2023/02/28 08:26:09;;;;;;;;;34.67;33.33;;;;;0.63;100.00;102682.59;4914348;28;49876;-71
2023/02/28 08:28:34;;;;;;;;;42.25;36.50;;;;;0.92;100.00;102718.84;4932715;28;49780;-72
2023/02/28 08:31:00;;;;;;;;;23.75;21.50;;;;;0.91;100.00;102700.63;4919257;28;51247;-71
2023/02/28 08:33:27;;;;;;;;;51.67;42.00;;;;;0.56;100.00;102616.53;4949960;28;49533;-71
2023/02/28 08:35:56;;;;;;;;;48.67;42.00;;;;;1.04;100.00;102708.69;4939536;28;49680;-70
2023/02/28 08:38:22;;;;;;;;;36.75;35.50;;;;;0.97;100.00;102686.56;4914437;28;49879;-72
2023/02/28 08:40:48;;;;;;;;;47.25;43.50;;;;;0.31;100.00;102558.25;4914465;28;52024;-72
2023/02/28 08:43:14;;;;;;;;;40.50;34.25;;;;;1.04;100.00;102682.84;4932020;28;49823;-72
2023/02/28 08:45:39;;;;;;;;;42.00;36.00;;;;;0.21;100.00;102535.84;4925715;28;49793;-71
2023/02/28 08:48:04;;;;;;;;;46.50;38.75;;;;;0.74;100.00;102606.94;4932403;28;49733;-72
2023/02/28 08:50:30;;;;;;;;;46.50;41.00;;;;;1.30;100.00;102683.47;4932806;28;50783;-72
2023/02/28 08:52:55;;;;;;;;;44.25;38.25;;;;;0.81;100.00;102591.19;4932301;28;49934;-72
2023/02/28 08:55:21;;;;;;;;;38.50;29.75;;;;;0.66;100.00;102545.88;4931737;28;49589;-72
2023/02/28 08:57:49;;;;;;;;;52.67;41.33;;;;;1.54;100.00;102687.31;4932126;28;49735;-71
2023/02/28 09:00:14;;;;;;;;;36.25;32.25;;;;;1.56;100.00;102684.88;4931648;28;49803;-72
2023/02/28 09:02:40;;;;;;;;;39.50;36.00;;;;;1.72;100.00;102691.50;4931798;28;49820;-72
2023/02/28 09:05:06;;;;;;;;;45.00;37.75;;;;;1.29;100.00;102613.50;4931802;28;49648;-72
2023/02/28 09:07:32;;;;;;;;;36.50;35.50;;;;;1.83;100.00;102718.31;4932193;28;49718;-72
2023/02/28 09:09:57;;;;;;;;;37.25;26.25;;;;;0.65;100.00;102475.97;4930969;28;49908;-73
2023/02/28 09:12:27;;;;;;;;;32.75;30.75;;;;;0.71;100.00;102505.84;4935755;28;49940;-74
2023/02/28 09:14:53;;;;;;;;;35.50;29.50;;;;;1.66;100.00;102646.06;4932249;28;49707;-74
2023/02/28 09:17:19;;;;;;;;;36.75;31.25;;;;;1.95;100.00;102697.78;4933161;28;49703;-74
2023/02/28 09:19:44;;;;;;;;;35.50;28.00;;;;;1.79;100.00;102674.81;4939079;28;49909;-74
2023/02/28 09:22:11;;;;;;;;;35.25;32.50;;;;;2.08;100.00;102716.19;4934550;28;49673;-73
2023/02/28 09:24:37;;;;;;;;;40.50;38.00;;;;;0.78;100.00;102486.63;4939142;28;49844;-73
2023/02/28 09:27:03;;;;;;;;;38.75;35.75;;;;;0.89;100.00;102488.47;4931827;28;49941;-73
2023/02/28 09:29:28;;;;;;;;;43.25;35.00;;;;;1.80;100.00;102629.13;4931292;28;49863;-74
2023/02/28 09:31:54;;;;;;;;;34.75;31.75;;;;;1.50;100.00;102580.81;4939518;28;49827;-74
2023/02/28 09:34:19;;;;;;;;;44.25;37.50;;;;;2.12;100.00;102665.53;4931596;28;49944;-73
2023/02/28 09:36:45;;;;;;;;;37.50;33.25;;;;;1.96;100.00;102681.47;4930810;28;50091;-72
2023/02/28 09:39:19;;;;;;;;;30.75;24.50;;;;;2.28;100.00;102711.03;4931059;28;49956;-72
2023/02/28 09:41:50;;;;;;;;;32.75;28.75;;;;;1.91;100.00;102628.34;4925729;28;49692;-73
2023/02/28 09:44:39;;;;;;;;;34.25;29.00;;;;;2.43;100.00;102710.53;4936460;28;49944;-73
2023/02/28 09:47:11;;;;;;;;;38.00;35.75;;;;;2.56;100.00;102716.84;4934709;28;49703;-68
2023/02/28 09:49:46;;;;;;;;;28.00;28.00;;;;;2.55;100.00;102685.63;4933814;28;50346;-78
2023/02/28 09:52:17;;;;;;;;;34.25;31.25;;;;;2.45;100.00;102659.72;4932731;28;49746;-65
2023/02/28 09:54:43;;;;;;;;;34.75;33.75;;;;;1.64;100.00;102503.56;4943559;28;49427;-69
2023/02/28 09:57:26;;;;;;;;;20.25;17.00;;;;;2.62;100.00;102658.53;4948109;28;49355;-74
2023/02/28 09:59:52;;;;;;;;;27.00;23.00;;;;;2.93;100.00;102688.78;4947635;28;50310;-72
2023/02/28 10:02:17;;;;;;;;;34.00;29.00;;;;;3.02;100.00;102688.63;4944115;28;49372;-72
2023/02/28 10:04:57;;;;;;;;;30.00;24.75;;;;;2.95;100.00;102671.66;4950169;28;49518;-73
2023/02/28 10:07:47;;;;;;;;;32.75;26.25;;;;;3.12;100.00;102676.53;4949952;28;49304;-71
2023/02/28 10:10:40;;;;;;;;;27.50;27.00;;;;;2.53;100.00;102565.34;4945775;28;50304;-71
2023/02/28 10:13:39;;;;;;;;;32.50;32.50;;;;;2.98;100.00;102640.75;4940421;28;49636;-73
2023/02/28 10:16:13;;;;;;;;;26.75;26.50;;;;;3.22;100.00;102678.19;4920882;28;49514;-70
2023/02/28 10:18:48;;;;;;;;;30.25;23.25;;;;;3.30;100.00;102677.13;4951657;28;49442;-73
2023/02/28 10:21:36;;;;;;;;;23.75;21.00;;;;;3.26;100.00;102674.13;4944522;28;50441;-73
2023/02/28 10:24:23;;;;;;;;;36.25;23.00;;;;;2.62;100.00;102565.19;4926642;28;49582;-73
2023/02/28 10:26:52;;;;;;;;;40.25;31.75;;;;;3.21;100.00;102655.63;4948485;28;49541;-69
2023/02/28 10:29:17;;;;;;;;;33.50;30.25;;;;;3.11;98.66;102627.13;4931618;28;49915;-70
2023/02/28 10:31:43;;;;;;;;;25.50;23.75;;;;;3.10;99.24;102620.13;4938203;28;49884;-78
2023/02/28 10:34:12;;;;;;;;;30.25;28.00;;;;;3.43;94.65;102653.94;4922830;28;49876;-69
2023/02/28 10:36:42;;;;;;;;;24.50;24.50;;;;;3.32;91.72;102604.56;4939144;28;49587;-70
2023/02/28 10:39:34;;;;;;;;;30.25;20.25;;;;;3.61;86.29;102659.69;4933765;28;49805;-69
2023/02/28 10:41:59;;;;;;;;;22.00;19.25;;;;;3.56;86.86;102634.13;4937068;28;50046;-74
2023/02/28 10:44:25;;;;;;;;;24.75;24.75;;;;;3.82;86.02;102628.38;4948417;28;49758;-70
2023/02/28 10:46:51;;;;;;;;;16.75;16.75;;;;;4.11;79.74;102630.63;4937047;28;49917;-70
2023/02/28 10:49:26;;;;;;;;;19.25;19.25;;;;;4.44;78.16;102635.81;4939737;28;49949;-68
2023/02/28 10:51:56;;;;;;;;;28.00;21.50;;;;;4.37;78.47;102581.50;4940756;28;49735;-69
2023/02/28 10:54:35;;;;;;;;;22.50;16.75;;;;;4.66;74.45;102598.38;4939150;28;49618;-70
2023/02/28 10:57:13;;;;;;;;;12.00;9.25;;;;;4.65;72.52;102605.28;4933172;28;49860;-70
2023/02/28 10:59:38;;;;;;;;;16.00;14.50;;;;;4.89;70.41;102630.47;4931486;28;49670;-70
2023/02/28 11:02:32;;;;;;;;;19.50;18.25;;;;;4.77;68.15;102602.66;4917382;28;52395;-72
2023/02/28 11:04:58;;;;;;;;;16.50;15.50;;;;;4.88;64.25;102622.56;4940953;28;51209;-72
2023/02/28 11:07:27;;;;;;;;;20.25;18.50;;;;;4.89;63.93;102587.94;4933837;28;49799;-73
2023/02/28 11:10:19;;;;;;;;;15.50;15.50;;;;;4.68;60.85;102542.16;4904095;28;49860;-73
2023/02/28 11:12:45;;;;;;;;;12.25;11.25;;;;;3.74;60.02;102435.56;4910644;28;49913;-73
2023/02/28 11:15:29;;;;;;;;;16.00;13.50;;;;;3.02;59.81;102299.47;4928088;28;50075;-73
2023/02/28 11:18:01;;;;;;;;;15.00;11.25;;;;;4.93;59.88;102596.91;4912421;28;50141;-73
2023/02/28 11:20:32;;;;;;;;;13.50;13.50;;;;;5.04;60.54;102601.19;4913794;28;49899;-71
2023/02/28 11:23:01;;;;;;;;;14.50;14.50;;;;;4.87;60.58;102560.91;4911745;28;49779;-69
2023/02/28 11:25:30;;;;;;;;;16.75;15.00;;;;;5.01;61.16;102595.72;4912835;28;49792;-66
2023/02/28 11:28:06;;;;;;;;;19.25;18.75;;;;;4.47;60.51;102563.19;4913999;28;50031;-68
2023/02/28 11:30:31;;;;;;;;;19.75;15.00;;;;;4.63;61.53;102600.72;4915540;28;49925;-75
2023/02/28 11:32:57;;;;;;;;;16.75;15.00;;;;;4.52;60.82;102599.94;4910991;28;50714;-75
2023/02/28 11:35:28;;;;;;;;;13.00;13.00;;;;;4.19;60.82;102556.72;4906973;28;49856;-72
2023/02/28 11:37:53;;;;;;;;;13.25;12.50;;;;;3.88;60.56;102491.16;4906763;28;49891;-67
2023/02/28 11:40:28;;;;;;;;;20.50;16.25;;;;;4.00;60.35;102511.16;4915860;28;50232;-67
2023/02/28 11:43:17;;;;;;;;;21.75;18.25;;;;;4.54;60.49;102591.47;4917623;28;50016;-66
2023/02/28 11:46:02;;;;;;;;;15.50;12.00;;;;;4.65;59.68;102581.88;4882567;28;49811;-67
2023/02/28 11:48:36;;;;;;;;;13.25;13.25;;;;;4.74;59.08;102582.53;4921084;28;49793;-74
2023/02/28 11:51:27;;;;;;;;;20.50;20.50;;;;;2.54;58.53;102163.63;4913936;28;50469;-66
2023/02/28 11:54:20;;;;;;;;;14.50;13.75;;;;;4.91;58.30;102572.44;4913403;28;50705;-67
2023/02/28 11:56:55;;;;;;;;;18.50;18.50;;;;;4.48;58.86;102486.09;4913777;28;49708;-64
2023/02/28 11:59:32;;;;;;;;;18.75;15.25;;;;;4.88;59.46;102557.50;4914956;28;49691;-62
2023/02/28 12:02:22;;;;;;;;;21.75;20.00;;;;;4.91;59.22;102560.31;4914929;28;49957;-64
2023/02/28 12:05:04;;;;;;;;;20.75;20.75;;;;;4.67;59.71;102504.84;4913319;28;49730;-68
2023/02/28 12:07:52;;;;;;;;;19.75;18.00;;;;;3.93;59.54;102378.06;4913959;28;50046;-66
2023/02/28 12:10:21;;;;;;;;;12.75;12.75;;;;;4.87;57.59;102553.09;4925498;28;49731;-64
2023/02/28 12:13:03;;;;;;;;;15.25;12.50;;;;;4.73;56.36;102553.78;4935341;28;49884;-70
2023/02/28 12:15:34;;;;;;;;;15.00;11.00;;;;;4.58;55.27;102557.09;4935000;28;50805;-68
2023/02/28 12:18:24;;;;;;;;;18.50;12.50;;;;;4.74;55.63;102542.63;4932292;28;49867;-68
2023/02/28 12:21:04;;;;;;;;;7.50;7.50;;;;;2.90;55.24;102224.22;4931035;28;49951;-69
2023/02/28 12:24:03;;;;;;;;;13.50;13.50;;;;;5.06;54.17;102522.38;4932537;28;49694;-71
2023/02/28 12:26:38;;;;;;;;;16.75;15.50;;;;;4.86;54.66;102431.59;4931948;28;49889;-70
2023/02/28 12:29:29;;;;;;;;;12.75;11.25;;;;;5.71;53.85;102507.84;4932562;28;49949;-69
2023/02/28 12:32:11;;;;;;;;;14.25;14.25;;;;;5.90;53.09;102489.19;4935426;28;49700;-68
2023/02/28 12:34:46;;;;;;;;;12.25;8.00;;;;;6.09;52.29;102470.44;4932617;28;49864;-66
2023/02/28 12:37:30;;;;;;;;;17.25;14.50;;;;;5.86;50.38;102397.59;4932206;28;51107;-67
2023/02/28 12:40:06;;;;;;;;;14.00;12.50;;;;;6.35;51.37;102447.75;4931784;28;49606;-65
2023/02/28 12:42:46;;;;;;;;;13.00;9.00;;;;;6.58;50.42;102471.94;4931329;28;49977;-64
2023/02/28 12:45:15;;;;;;;;;19.75;16.25;;;;;6.32;50.01;102438.94;4932481;28;49681;-67
2023/02/28 12:47:45;;;;;;;;;17.00;16.25;;;;;5.99;48.97;102356.84;4938902;28;50905;-67
2023/02/28 12:50:11;;;;;;;;;23.00;19.50;;;;;6.48;49.26;102438.22;4930083;28;49887;-61
2023/02/28 12:52:50;;;;;;;;;15.00;15.00;;;;;6.35;49.11;102392.97;4930468;28;50001;-63
2023/02/28 12:55:31;;;;;;;;;20.00;17.50;;;;;6.57;49.42;102451.88;4935436;28;50006;-61
2023/02/28 12:58:33;;;;;;;;;15.75;15.00;;;;;6.79;49.59;102488.03;4927749;28;50913;-61
2023/02/28 13:01:10;;;;;;;;;13.75;13.00;;;;;6.80;47.79;102482.00;4931919;28;49696;-69
2023/02/28 13:04:06;;;;;;;;;17.00;14.00;;;;;7.03;47.91;102477.31;4931820;28;50088;-61
2023/02/28 13:07:00;;;;;;;;;20.25;16.50;;;;;7.15;48.95;102471.19;4892533;28;50096;-61
2023/02/28 13:09:26;;;;;;;;;15.75;15.75;;;;;7.39;48.84;102463.91;4931242;28;50989;-62
2023/02/28 13:11:54;;;;;;;;;18.00;16.50;;;;;7.49;47.05;102461.88;4930575;28;49843;-60
2023/02/28 13:14:27;;;;;;;;;12.00;7.00;;;;;7.31;47.34;102459.03;4931886;28;49758;-61
2023/02/28 13:17:09;;;;;;;;;17.50;17.50;;;;;7.21;48.43;102462.78;4914802;28;49658;-60
2023/02/28 13:19:37;;;;;;;;;19.50;18.00;;;;;6.92;48.60;102436.59;4918319;28;51419;-60
2023/02/28 13:22:04;;;;;;;;;15.75;14.00;;;;;6.93;48.35;102454.06;4921933;28;49823;-62
2023/02/28 13:24:48;;;;;;;;;18.50;17.00;;;;;6.67;48.96;102422.03;4927466;28;49809;-61
2023/02/28 13:27:13;;;;;;;;;15.50;13.50;;;;;6.81;47.66;102459.44;4926865;28;49834;-61
2023/02/28 13:29:42;;;;;;;;;18.00;16.25;;;;;6.80;46.99;102457.63;4931431;28;50613;-61
2023/02/28 13:32:07;;;;;;;;;25.25;21.25;;;;;6.60;47.76;102458.97;4931610;28;50067;-60
2023/02/28 13:34:33;;;;;;;;;15.00;15.00;;;;;6.15;47.54;102423.00;4931766;28;49989;-62
2023/02/28 13:37:17;;;;;;;;;11.75;9.00;;;;;6.02;47.36;102453.50;4928805;28;49794;-62
2023/02/28 13:39:42;;;;;;;;;20.25;17.75;;;;;5.92;48.23;102452.78;4930167;28;51020;-61
2023/02/28 13:42:42;;;;;;;;;14.75;14.00;;;;;5.73;48.80;102454.13;4935709;28;49866;-60
2023/02/28 13:45:07;;;;;;;;;17.25;16.50;;;;;5.85;49.06;102451.44;4936710;28;49746;-71
2023/02/28 13:47:38;;;;;;;;;5.75;4.75;;;;;5.90;47.41;102439.66;4934694;28;49681;-65
2023/02/28 13:50:29;;;;;;;;;17.75;16.50;;;;;5.67;47.04;102398.09;4934417;28;50760;-61
2023/02/28 13:53:18;;;;;;;;;13.25;13.25;;;;;6.00;47.78;102447.28;4931531;28;49753;-63
2023/02/28 13:56:05;;;;;;;;;12.00;12.00;;;;;6.19;47.06;102443.28;4934483;28;49888;-62
2023/02/28 13:58:55;;;;;;;;;14.00;14.00;;;;;6.34;46.36;102446.84;4938440;28;49776;-61
2023/02/28 14:01:32;;;;;;;;;15.00;12.50;;;;;6.64;46.75;102436.56;4933673;28;49759;-60
2023/02/28 14:04:15;;;;;;;;;12.75;12.75;;;;;6.67;47.11;102363.72;4934391;28;49604;-61
2023/02/28 14:06:52;;;;;;;;;15.50;13.75;;;;;6.92;45.33;102440.09;4931002;28;49881;-61
2023/02/28 14:09:28;;;;;;;;;8.75;7.25;;;;;6.68;44.03;102441.19;4932426;28;50321;-63
2023/02/28 14:11:54;;;;;;;;;14.00;12.50;;;;;6.16;44.31;102406.53;4931397;28;50004;-64
2023/02/28 14:14:35;;;;;;;;;17.00;12.50;;;;;6.16;44.75;102437.84;4933640;28;50010;-64
2023/02/28 14:17:02;;;;;;;;;22.00;17.25;;;;;5.93;45.16;102420.69;4934310;28;49697;-64
2023/02/28 14:19:31;;;;;;;;;15.50;15.50;;;;;6.02;45.72;102431.72;4939201;28;49981;-64
2023/02/28 14:22:21;;;;;;;;;13.50;11.25;;;;;6.10;45.60;102430.53;4935402;28;49855;-63
2023/02/28 14:25:11;;;;;;;;;15.00;10.00;;;;;6.28;45.83;102436.06;4931326;28;49852;-68
2023/02/28 14:27:46;;;;;;;;;15.75;11.00;;;;;6.42;45.74;102449.97;4933977;28;49708;-64
2023/02/28 14:30:26;;;;;;;;;14.00;13.00;;;;;6.37;45.47;102436.66;4933502;28;49748;-65
2023/02/28 14:32:58;;;;;;;;;13.00;10.50;;;;;6.18;45.32;102425.81;4933280;28;50259;-66
2023/02/28 14:35:48;;;;;;;;;16.00;12.75;;;;;5.98;45.58;102438.47;4934437;28;49667;-74
2023/02/28 14:38:21;;;;;;;;;15.50;13.75;;;;;5.44;45.16;102360.09;4912962;28;50038;-69
2023/02/28 14:40:50;;;;;;;;;13.25;13.25;;;;;5.68;45.73;102397.28;4934401;28;49890;-73
2023/02/28 14:43:22;;;;;;;;;18.50;14.00;;;;;5.46;46.34;102354.19;4933956;28;49969;-71
2023/02/28 14:45:51;;;;;;;;;10.50;9.75;;;;;5.66;46.13;102384.16;4933889;28;49672;-70
2023/02/28 14:48:18;;;;;;;;;15.00;13.00;;;;;6.09;46.81;102412.19;4933657;28;49809;-72
2023/02/28 14:50:51;;;;;;;;;14.25;13.00;;;;;6.19;46.76;102396.34;4934369;28;49964;-65
2023/02/28 14:53:20;;;;;;;;;18.75;14.25;;;;;6.46;46.00;102428.47;4933471;28;49889;-68
2023/02/28 14:55:48;;;;;;;;;19.75;14.50;;;;;6.24;44.19;102431.41;4933916;28;49720;-71
2023/02/28 14:58:25;;;;;;;;;11.75;8.25;;;;;5.91;44.32;102396.25;4933810;28;49963;-70
2023/02/28 15:00:53;;;;;;;;;14.50;14.00;;;;;5.95;45.09;102419.09;4916639;28;49918;-75
2023/02/28 15:03:36;;;;;;;;;9.00;7.75;;;;;5.87;45.66;102425.47;4933768;28;49644;-67
2023/02/28 15:06:12;;;;;;;;;17.25;16.00;;;;;5.58;45.87;102364.50;4933611;28;49808;-70
2023/02/28 15:08:38;;;;;;;;;17.25;16.25;;;;;6.08;46.44;102395.66;4933492;28;49728;-77
2023/02/28 15:11:22;;;;;;;;;13.50;13.50;;;;;6.31;46.61;102389.28;4933733;28;49855;-70
2023/02/28 15:13:57;;;;;;;;;13.50;11.00;;;;;6.18;45.90;102353.72;4933579;28;49815;-67
2023/02/28 15:16:33;;;;;;;;;15.50;15.50;;;;;6.53;45.94;102426.34;4933640;28;49923;-76
2023/02/28 15:19:12;;;;;;;;;14.25;13.00;;;;;6.41;44.47;102422.97;4933481;28;49806;-68
2023/02/28 15:21:43;;;;;;;;;16.50;15.00;;;;;6.01;45.04;102370.88;4929205;28;49892;-65
2023/02/28 15:24:13;;;;;;;;;15.25;13.75;;;;;6.11;44.57;102411.47;4933029;28;49858;-65
2023/02/28 15:26:42;;;;;;;;;14.25;12.25;;;;;5.83;44.16;102389.59;4933432;28;49850;-66
2023/02/28 15:29:14;;;;;;;;;12.00;10.50;;;;;5.71;44.94;102385.38;4931598;28;49922;-67
2023/02/28 15:31:46;;;;;;;;;20.00;15.00;;;;;5.66;44.29;102380.66;4937138;28;50216;-66
2023/02/28 15:34:42;;;;;;;;;17.50;13.25;;;;;6.08;43.67;102426.94;4935717;28;50888;-65
2023/02/28 15:37:47;;;;;;;;;17.25;17.25;;;;;6.06;44.53;102380.69;4917046;28;49887;-64
2023/02/28 15:40:33;;;;;;;;;14.50;12.75;;;;;6.35;43.66;102422.56;4931794;28;50415;-63
2023/02/28 15:43:22;;;;;;;;;14.00;12.00;;;;;6.28;45.09;102442.16;4924896;28;49838;-62
2023/02/28 15:45:51;;;;;;;;;16.50;14.00;;;;;6.06;45.30;102444.16;4935265;28;50528;-62
2023/02/28 15:48:23;;;;;;;;;13.25;12.75;;;;;5.99;45.11;102429.84;4932308;28;49986;-63
2023/02/28 15:50:55;;;;;;;;;10.00;10.00;;;;;5.94;45.26;102420.78;4931647;28;49763;-62
2023/02/28 15:53:25;;;;;;;;;12.50;10.75;;;;;5.45;45.26;102349.78;4932961;28;50267;-63
2023/02/28 15:56:00;;;;;;;;;17.00;16.50;;;;;5.84;45.10;102434.00;4929050;28;51434;-63
2023/02/28 15:58:26;;;;;;;;;12.25;12.25;;;;;5.64;45.28;102414.41;4930056;28;49683;-63
2023/02/28 16:01:29;;;;;;;;;14.00;14.00;;;;;5.73;45.18;102430.66;4931645;28;49696;-63
2023/02/28 16:03:58;;;;;;;;;15.00;15.00;;;;;5.45;45.11;102393.16;4883729;28;50163;-63
2023/02/28 16:06:30;;;;;;;;;11.00;11.00;;;;;5.62;44.71;102433.38;4932734;28;50972;-63
2023/02/28 16:08:56;;;;;;;;;15.00;12.50;;;;;5.35;45.17;102382.91;4930285;28;50101;-63
2023/02/28 16:11:21;;;;;;;;;12.00;12.00;;;;;5.30;45.10;102395.59;4934074;28;49745;-63
2023/02/28 16:13:48;;;;;;;;;15.00;14.25;;;;;5.46;45.06;102424.50;4928005;28;50025;-63
2023/02/28 16:16:19;;;;;;;;;14.25;12.75;;;;;5.44;45.00;102422.59;4932004;28;49847;-63
2023/02/28 16:18:44;;;;;;;;;10.00;9.50;;;;;4.96;44.40;102355.97;4931008;28;50165;-63
2023/02/28 16:21:09;;;;;;;;;15.50;14.50;;;;;5.17;45.31;102406.00;4931814;28;49719;-63
2023/02/28 16:23:35;;;;;;;;;14.75;14.75;;;;;5.33;44.74;102445.31;4932366;28;49975;-63
2023/02/28 16:26:00;;;;;;;;;9.25;8.75;;;;;5.22;44.45;102415.03;4931236;28;49740;-63
2023/02/28 16:28:32;;;;;;;;;10.50;10.50;;;;;5.29;44.83;102422.44;4932438;28;49933;-63
2023/02/28 16:31:00;;;;;;;;;15.00;12.25;;;;;5.30;45.10;102447.69;4931239;28;49988;-64
2023/02/28 16:33:25;;;;;;;;;6.75;6.75;;;;;5.28;45.09;102425.84;4930864;28;49830;-63
2023/02/28 16:35:50;;;;;;;;;16.50;12.50;;;;;5.40;46.21;102437.13;4930212;28;50689;-63
2023/02/28 16:38:16;;;;;;;;;9.00;9.00;;;;;5.33;46.81;102436.59;4930166;28;52191;-63
2023/02/28 16:40:41;;;;;;;;;16.25;15.50;;;;;5.26;46.16;102422.25;4930528;28;49643;-63
2023/02/28 16:43:15;;;;;;;;;10.00;10.00;;;;;5.32;45.90;102453.94;4930996;28;49753;-66
2023/02/28 16:45:40;;;;;;;;;10.75;10.75;;;;;5.24;46.68;102442.06;4930884;28;49798;-63
2023/02/28 16:48:12;;;;;;;;;16.75;15.50;;;;;5.12;46.25;102423.91;4932247;28;49707;-67
2023/02/28 16:50:38;;;;;;;;;13.50;11.75;;;;;5.18;46.50;102447.75;4932339;28;49882;-65
2023/02/28 16:53:03;;;;;;;;;7.00;7.00;;;;;5.26;46.67;102440.47;4932030;28;50088;-63
2023/02/28 16:55:29;;;;;;;;;17.00;12.25;;;;;4.64;46.57;102352.84;4932159;28;49881;-68
2023/02/28 16:57:57;;;;;;;;;12.00;12.00;;;;;5.04;46.81;102458.91;4932096;28;49836;-65
2023/02/28 17:00:23;;;;;;;;;13.00;12.00;;;;;5.00;46.75;102458.56;4914782;28;49957;-65
2023/02/28 17:02:49;;;;;;;;;14.00;13.25;;;;;5.00;46.28;102462.06;4932161;28;50229;-64
2023/02/28 17:05:15;;;;;;;;;16.00;12.25;;;;;4.74;47.20;102439.44;4931809;28;50014;-63
2023/02/28 17:07:41;;;;;;;;;16.00;12.25;;;;;4.72;47.31;102450.50;4931531;28;49768;-68
2023/02/28 17:10:17;;;;;;;;;17.00;15.50;;;;;4.84;47.77;102470.53;4931814;28;49801;-69
2023/02/28 17:12:43;;;;;;;;;13.50;13.00;;;;;4.68;48.00;102448.50;4918263;28;49949;-70
2023/02/28 17:15:10;;;;;;;;;16.50;12.75;;;;;4.72;48.31;102467.03;4917746;28;50722;-64
2023/02/28 17:17:35;;;;;;;;;15.00;15.00;;;;;4.52;48.39;102447.38;4935409;28;49724;-64
2023/02/28 17:20:02;;;;;;;;;15.25;13.50;;;;;4.40;48.46;102445.63;4935469;28;50253;-63
2023/02/28 17:22:27;;;;;;;;;15.75;15.50;;;;;4.41;49.10;102460.41;4935365;28;49787;-64
2023/02/28 17:24:55;;;;;;;;;12.25;12.00;;;;;4.38;48.73;102468.91;4934203;28;67765;-63
2023/02/28 17:27:21;;;;;;;;;13.75;13.75;;;;;4.29;49.55;102463.03;4917631;28;49770;-63
2023/02/28 17:29:46;;;;;;;;;11.50;8.50;;;;;4.24;49.60;102473.09;4935185;28;49742;-64
2023/02/28 17:32:12;;;;;;;;;15.00;13.50;;;;;3.97;49.37;102427.81;4935455;28;49979;-64
2023/02/28 17:34:37;;;;;;;;;14.50;12.50;;;;;4.15;49.57;102480.25;4935119;28;49738;-69
2023/02/28 17:37:03;;;;;;;;;9.25;8.00;;;;;4.05;49.94;102477.72;4935133;28;50480;-64
2023/02/28 17:39:30;;;;;;;;;18.50;15.75;;;;;4.13;49.29;102501.69;4934615;28;49653;-66
2023/02/28 17:41:56;;;;;;;;;11.50;11.50;;;;;4.11;50.32;102492.88;4935129;28;50235;-73
2023/02/28 17:44:23;;;;;;;;;12.00;12.00;;;;;3.87;50.26;102466.88;4934912;28;50944;-70
2023/02/28 17:46:49;;;;;;;;;17.00;16.00;;;;;4.01;50.58;102492.19;4934601;28;49781;-76
2023/02/28 17:49:16;;;;;;;;;9.00;6.00;;;;;4.03;50.78;102501.00;4935075;28;49884;-63
2023/02/28 17:51:41;;;;;;;;;15.00;13.25;;;;;3.88;50.30;102479.09;4941651;28;50046;-74
2023/02/28 17:54:07;;;;;;;;;21.75;21.50;;;;;3.94;50.92;102495.09;4933596;28;49902;-77
2023/02/28 17:56:32;;;;;;;;;15.00;12.50;;;;;4.03;50.95;102505.28;4934164;28;50071;-62
2023/02/28 17:58:58;;;;;;;;;14.75;13.25;;;;;3.99;50.93;102508.47;4934651;28;49742;-63
2023/02/28 18:01:25;;;;;;;;;15.75;12.50;;;;;3.96;50.87;102505.66;4934283;28;49932;-63
2023/02/28 18:03:51;;;;;;;;;13.25;13.25;;;;;3.85;50.60;102502.22;4934282;28;50805;-62
2023/02/28 18:06:22;;;;;;;;;19.75;16.00;;;;;3.98;50.68;102519.66;4934394;28;49866;-62
2023/02/28 18:08:47;;;;;;;;;12.75;11.50;;;;;3.96;50.97;102519.53;4934310;28;50040;-62
2023/02/28 18:11:17;;;;;;;;;15.75;11.75;;;;;3.40;50.63;102435.63;4934558;28;50096;-62
2023/02/28 18:13:44;;;;;;;;;18.50;14.75;;;;;3.90;51.27;102523.34;4931015;28;51290;-65
2023/02/28 18:16:09;;;;;;;;;15.50;14.00;;;;;3.82;51.49;102524.47;4928176;28;49998;-61
2023/02/28 18:18:37;;;;;;;;;16.50;15.00;;;;;3.88;51.61;102536.25;4929552;28;51389;-62
2023/02/28 18:21:04;;;;;;;;;21.50;14.75;;;;;3.72;51.49;102521.16;4932281;28;50199;-62
2023/02/28 18:23:30;;;;;;;;;12.50;12.50;;;;;3.81;52.08;102523.56;4932052;28;49887;-62
2023/02/28 18:25:56;;;;;;;;;17.25;15.75;;;;;3.89;51.61;102534.53;4915530;28;50091;-62
2023/02/28 18:28:21;;;;;;;;;11.00;8.75;;;;;4.06;51.62;102546.22;4934094;28;49615;-62
2023/02/28 18:30:46;;;;;;;;;16.00;16.00;;;;;3.73;51.84;102490.91;4917108;28;50336;-63
2023/02/28 18:33:11;;;;;;;;;16.50;16.25;;;;;3.94;51.72;102533.19;4933461;28;49553;-62
2023/02/28 18:35:38;;;;;;;;;19.00;19.00;;;;;3.98;52.66;102532.66;4935867;28;49873;-62
2023/02/28 18:38:12;;;;;;;;;16.50;16.50;;;;;3.97;51.90;102520.44;4931205;28;49874;-62
2023/02/28 18:40:37;;;;;;;;;22.00;17.25;;;;;4.11;51.29;102535.38;4933620;28;49934;-62
2023/02/28 18:43:03;;;;;;;;;19.75;18.00;;;;;4.19;51.51;102551.53;4915880;28;51829;-62
2023/02/28 18:45:29;;;;;;;;;19.75;18.00;;;;;4.03;51.55;102519.19;4931007;28;50034;-63